sensor_id;sensor_type;location;lat;lon;timestamp;temperature;humidity
51383;DHT22;37475;43.358;1.248;2022-08-21T00:01:34;22.00;71.50
51383;DHT22;37475;43.358;1.248;2022-08-21T00:04:06;22.00;71.30
51383;DHT22;37475;43.358;1.248;2022-08-21T00:06:33;22.00;70.80
51383;DHT22;37475;43.358;1.248;2022-08-21T00:09:00;21.90;71.20
51383;DHT22;37475;43.358;1.248;2022-08-21T00:11:26;22.00;71.20
51383;DHT22;37475;43.358;1.248;2022-08-21T00:13:53;21.90;71.10
51383;DHT22;37475;43.358;1.248;2022-08-21T00:16:20;22.00;72.40
51383;DHT22;37475;43.358;1.248;2022-08-21T00:18:45;22.00;70.90
51383;DHT22;37475;43.358;1.248;2022-08-21T00:21:15;22.10;70.60
51383;DHT22;37475;43.358;1.248;2022-08-21T00:23:41;22.10;70.90
51383;DHT22;37475;43.358;1.248;2022-08-21T00:26:07;22.10;71.10
51383;DHT22;37475;43.358;1.248;2022-08-21T00:28:34;22.10;70.70
51383;DHT22;37475;43.358;1.248;2022-08-21T00:31:00;22.10;70.30
51383;DHT22;37475;43.358;1.248;2022-08-21T00:33:26;22.20;70.30
51383;DHT22;37475;43.358;1.248;2022-08-21T00:35:52;22.20;70.30
51383;DHT22;37475;43.358;1.248;2022-08-21T00:38:18;22.30;70.40
51383;DHT22;37475;43.358;1.248;2022-08-21T00:40:56;22.10;71.90
51383;DHT22;37475;43.358;1.248;2022-08-21T00:43:28;21.80;73.80
51383;DHT22;37475;43.358;1.248;2022-08-21T00:45:56;21.40;75.20
51383;DHT22;37475;43.358;1.248;2022-08-21T00:48:23;21.20;76.20
51383;DHT22;37475;43.358;1.248;2022-08-21T00:53:29;21.10;77.20
51383;DHT22;37475;43.358;1.248;2022-08-21T00:55:57;21.00;77.10
51383;DHT22;37475;43.358;1.248;2022-08-21T00:58:26;21.10;77.10
51383;DHT22;37475;43.358;1.248;2022-08-21T01:00:53;21.10;75.90
51383;DHT22;37475;43.358;1.248;2022-08-21T01:03:21;21.20;75.60
51383;DHT22;37475;43.358;1.248;2022-08-21T01:05:49;21.20;75.70
51383;DHT22;37475;43.358;1.248;2022-08-21T01:08:16;21.10;76.10
51383;DHT22;37475;43.358;1.248;2022-08-21T01:10:43;21.10;75.30
51383;DHT22;37475;43.358;1.248;2022-08-21T01:13:11;21.20;75.30
51383;DHT22;37475;43.358;1.248;2022-08-21T01:15:43;21.20;76.20
51383;DHT22;37475;43.358;1.248;2022-08-21T01:18:11;21.00;77.10
51383;DHT22;37475;43.358;1.248;2022-08-21T01:23:40;20.80;78.10
51383;DHT22;37475;43.358;1.248;2022-08-21T01:26:09;20.70;78.20
51383;DHT22;37475;43.358;1.248;2022-08-21T01:28:42;20.70;78.00
51383;DHT22;37475;43.358;1.248;2022-08-21T01:31:10;20.80;78.00
51383;DHT22;37475;43.358;1.248;2022-08-21T01:33:37;20.90;77.70
51383;DHT22;37475;43.358;1.248;2022-08-21T01:36:04;20.90;77.10
51383;DHT22;37475;43.358;1.248;2022-08-21T01:38:30;21.00;76.70
51383;DHT22;37475;43.358;1.248;2022-08-21T01:40:56;21.00;77.40
51383;DHT22;37475;43.358;1.248;2022-08-21T01:43:22;20.80;77.70
51383;DHT22;37475;43.358;1.248;2022-08-21T01:45:47;20.80;77.30
51383;DHT22;37475;43.358;1.248;2022-08-21T01:48:13;20.90;76.70
51383;DHT22;37475;43.358;1.248;2022-08-21T01:50:39;21.10;76.50
51383;DHT22;37475;43.358;1.248;2022-08-21T01:53:05;21.00;76.40
51383;DHT22;37475;43.358;1.248;2022-08-21T01:55:31;21.10;76.80
51383;DHT22;37475;43.358;1.248;2022-08-21T01:57:57;20.90;78.00
51383;DHT22;37475;43.358;1.248;2022-08-21T02:00:25;20.60;78.90
51383;DHT22;37475;43.358;1.248;2022-08-21T02:02:52;20.70;77.90
51383;DHT22;37475;43.358;1.248;2022-08-21T02:05:18;20.90;77.70
51383;DHT22;37475;43.358;1.248;2022-08-21T02:07:49;20.90;77.50
51383;DHT22;37475;43.358;1.248;2022-08-21T02:10:21;21.00;78.10
51383;DHT22;37475;43.358;1.248;2022-08-21T02:12:50;21.00;77.90
51383;DHT22;37475;43.358;1.248;2022-08-21T02:15:16;21.10;77.30
51383;DHT22;37475;43.358;1.248;2022-08-21T02:17:47;21.10;77.20
51383;DHT22;37475;43.358;1.248;2022-08-21T02:20:24;21.10;77.30
51383;DHT22;37475;43.358;1.248;2022-08-21T02:22:55;21.10;77.30
51383;DHT22;37475;43.358;1.248;2022-08-21T02:25:22;21.10;78.30
51383;DHT22;37475;43.358;1.248;2022-08-21T02:27:49;21.10;77.70
51383;DHT22;37475;43.358;1.248;2022-08-21T02:30:19;21.10;78.90
51383;DHT22;37475;43.358;1.248;2022-08-21T02:32:49;20.90;79.60
51383;DHT22;37475;43.358;1.248;2022-08-21T02:35:15;20.80;80.30
51383;DHT22;37475;43.358;1.248;2022-08-21T02:37:54;20.70;80.80
51383;DHT22;37475;43.358;1.248;2022-08-21T02:40:27;20.60;81.30
51383;DHT22;37475;43.358;1.248;2022-08-21T02:42:59;20.50;82.10
51383;DHT22;37475;43.358;1.248;2022-08-21T02:45:26;20.50;82.40
51383;DHT22;37475;43.358;1.248;2022-08-21T02:47:59;20.50;81.20
51383;DHT22;37475;43.358;1.248;2022-08-21T02:50:30;20.60;81.00
51383;DHT22;37475;43.358;1.248;2022-08-21T02:53:05;20.70;80.90
51383;DHT22;37475;43.358;1.248;2022-08-21T02:55:33;20.70;80.90
51383;DHT22;37475;43.358;1.248;2022-08-21T02:58:00;20.80;80.70
51383;DHT22;37475;43.358;1.248;2022-08-21T03:00:28;20.60;81.60
51383;DHT22;37475;43.358;1.248;2022-08-21T03:02:56;20.70;80.60
51383;DHT22;37475;43.358;1.248;2022-08-21T03:05:23;20.80;80.60
51383;DHT22;37475;43.358;1.248;2022-08-21T03:07:50;20.80;80.50
51383;DHT22;37475;43.358;1.248;2022-08-21T03:10:18;20.80;80.00
51383;DHT22;37475;43.358;1.248;2022-08-21T03:12:46;20.90;80.40
51383;DHT22;37475;43.358;1.248;2022-08-21T03:15:14;20.80;80.20
51383;DHT22;37475;43.358;1.248;2022-08-21T03:17:43;20.80;80.50
51383;DHT22;37475;43.358;1.248;2022-08-21T03:20:10;20.80;80.60
51383;DHT22;37475;43.358;1.248;2022-08-21T03:22:36;20.70;80.50
51383;DHT22;37475;43.358;1.248;2022-08-21T03:25:03;20.70;80.40
51383;DHT22;37475;43.358;1.248;2022-08-21T03:27:29;20.70;80.80
51383;DHT22;37475;43.358;1.248;2022-08-21T03:29:56;20.70;80.70
51383;DHT22;37475;43.358;1.248;2022-08-21T03:32:22;20.60;81.00
51383;DHT22;37475;43.358;1.248;2022-08-21T03:34:48;20.60;81.20
51383;DHT22;37475;43.358;1.248;2022-08-21T03:37:15;20.40;81.50
51383;DHT22;37475;43.358;1.248;2022-08-21T03:39:41;20.30;82.10
51383;DHT22;37475;43.358;1.248;2022-08-21T03:42:08;20.40;82.00
51383;DHT22;37475;43.358;1.248;2022-08-21T03:44:35;20.20;82.60
51383;DHT22;37475;43.358;1.248;2022-08-21T03:47:01;20.10;83.10
51383;DHT22;37475;43.358;1.248;2022-08-21T03:49:27;20.10;83.30
51383;DHT22;37475;43.358;1.248;2022-08-21T03:51:53;20.10;83.30
51383;DHT22;37475;43.358;1.248;2022-08-21T03:54:19;20.20;83.30
51383;DHT22;37475;43.358;1.248;2022-08-21T03:56:45;20.10;83.30
51383;DHT22;37475;43.358;1.248;2022-08-21T03:59:11;20.10;83.20
51383;DHT22;37475;43.358;1.248;2022-08-21T04:01:37;20.20;83.20
51383;DHT22;37475;43.358;1.248;2022-08-21T04:04:04;20.10;83.50
51383;DHT22;37475;43.358;1.248;2022-08-21T04:06:31;20.00;83.50
51383;DHT22;37475;43.358;1.248;2022-08-21T04:08:57;20.00;83.90
51383;DHT22;37475;43.358;1.248;2022-08-21T04:11:23;20.00;84.30
51383;DHT22;37475;43.358;1.248;2022-08-21T04:13:49;19.90;84.50
51383;DHT22;37475;43.358;1.248;2022-08-21T04:16:15;19.70;84.80
51383;DHT22;37475;43.358;1.248;2022-08-21T04:18:41;19.80;84.50
51383;DHT22;37475;43.358;1.248;2022-08-21T04:21:09;19.80;84.50
51383;DHT22;37475;43.358;1.248;2022-08-21T04:26:02;19.90;84.00
51383;DHT22;37475;43.358;1.248;2022-08-21T04:28:28;19.90;83.70
51383;DHT22;37475;43.358;1.248;2022-08-21T04:30:55;19.80;84.20
51383;DHT22;37475;43.358;1.248;2022-08-21T04:33:21;19.80;84.60
51383;DHT22;37475;43.358;1.248;2022-08-21T04:35:48;19.70;84.80
51383;DHT22;37475;43.358;1.248;2022-08-21T04:38:14;19.60;84.90
51383;DHT22;37475;43.358;1.248;2022-08-21T04:40:40;19.60;85.40
51383;DHT22;37475;43.358;1.248;2022-08-21T04:43:09;19.50;85.70
51383;DHT22;37475;43.358;1.248;2022-08-21T04:45:40;19.60;85.50
51383;DHT22;37475;43.358;1.248;2022-08-21T04:48:10;19.60;85.70
51383;DHT22;37475;43.358;1.248;2022-08-21T04:50:56;19.50;85.90
51383;DHT22;37475;43.358;1.248;2022-08-21T04:53:41;19.60;85.60
51383;DHT22;37475;43.358;1.248;2022-08-21T04:56:23;19.50;85.60
51383;DHT22;37475;43.358;1.248;2022-08-21T04:58:57;19.50;85.70
51383;DHT22;37475;43.358;1.248;2022-08-21T05:01:26;19.50;85.80
51383;DHT22;37475;43.358;1.248;2022-08-21T05:03:56;19.50;86.00
51383;DHT22;37475;43.358;1.248;2022-08-21T05:06:24;19.50;85.80
51383;DHT22;37475;43.358;1.248;2022-08-21T05:08:53;19.40;86.00
51383;DHT22;37475;43.358;1.248;2022-08-21T05:11:20;19.50;85.80
51383;DHT22;37475;43.358;1.248;2022-08-21T05:13:48;19.50;85.60
51383;DHT22;37475;43.358;1.248;2022-08-21T05:16:14;19.50;85.60
51383;DHT22;37475;43.358;1.248;2022-08-21T05:18:41;19.60;85.30
51383;DHT22;37475;43.358;1.248;2022-08-21T05:21:08;19.60;85.10
51383;DHT22;37475;43.358;1.248;2022-08-21T05:23:35;19.60;85.10
51383;DHT22;37475;43.358;1.248;2022-08-21T05:26:03;19.70;85.00
51383;DHT22;37475;43.358;1.248;2022-08-21T05:28:30;19.70;84.70
51383;DHT22;37475;43.358;1.248;2022-08-21T05:30:57;19.80;84.40
51383;DHT22;37475;43.358;1.248;2022-08-21T05:33:23;19.80;84.40
51383;DHT22;37475;43.358;1.248;2022-08-21T05:35:53;19.80;84.30
51383;DHT22;37475;43.358;1.248;2022-08-21T05:38:24;19.90;83.80
51383;DHT22;37475;43.358;1.248;2022-08-21T05:40:52;20.00;83.60
51383;DHT22;37475;43.358;1.248;2022-08-21T05:43:19;20.10;83.50
51383;DHT22;37475;43.358;1.248;2022-08-21T05:45:45;20.20;83.30
51383;DHT22;37475;43.358;1.248;2022-08-21T05:48:14;20.10;83.40
51383;DHT22;37475;43.358;1.248;2022-08-21T05:50:44;20.10;83.50
51383;DHT22;37475;43.358;1.248;2022-08-21T05:53:11;20.00;83.40
51383;DHT22;37475;43.358;1.248;2022-08-21T05:55:38;20.10;83.70
51383;DHT22;37475;43.358;1.248;2022-08-21T05:58:05;20.20;83.40
51383;DHT22;37475;43.358;1.248;2022-08-21T06:00:31;20.30;83.10
51383;DHT22;37475;43.358;1.248;2022-08-21T06:02:57;20.20;83.10
51383;DHT22;37475;43.358;1.248;2022-08-21T06:05:23;20.30;83.10
51383;DHT22;37475;43.358;1.248;2022-08-21T06:07:49;20.30;82.80
51383;DHT22;37475;43.358;1.248;2022-08-21T06:10:15;20.30;82.90
51383;DHT22;37475;43.358;1.248;2022-08-21T06:12:41;20.50;82.50
51383;DHT22;37475;43.358;1.248;2022-08-21T06:15:07;20.60;82.00
51383;DHT22;37475;43.358;1.248;2022-08-21T06:17:33;20.50;81.90
51383;DHT22;37475;43.358;1.248;2022-08-21T06:19:59;20.50;82.20
51383;DHT22;37475;43.358;1.248;2022-08-21T06:22:25;20.60;81.90
51383;DHT22;37475;43.358;1.248;2022-08-21T06:24:51;20.60;81.50
51383;DHT22;37475;43.358;1.248;2022-08-21T06:27:17;20.70;81.50
51383;DHT22;37475;43.358;1.248;2022-08-21T06:29:43;20.70;81.10
51383;DHT22;37475;43.358;1.248;2022-08-21T06:32:13;20.60;81.60
51383;DHT22;37475;43.358;1.248;2022-08-21T06:34:41;20.70;81.50
51383;DHT22;37475;43.358;1.248;2022-08-21T06:37:07;20.70;81.20
51383;DHT22;37475;43.358;1.248;2022-08-21T06:39:34;20.70;81.00
51383;DHT22;37475;43.358;1.248;2022-08-21T06:42:00;20.90;80.50
51383;DHT22;37475;43.358;1.248;2022-08-21T06:44:26;20.90;80.50
51383;DHT22;37475;43.358;1.248;2022-08-21T06:46:52;20.90;80.30
51383;DHT22;37475;43.358;1.248;2022-08-21T06:49:18;21.00;80.10
51383;DHT22;37475;43.358;1.248;2022-08-21T06:51:43;21.10;79.70
51383;DHT22;37475;43.358;1.248;2022-08-21T06:54:09;21.10;79.20
51383;DHT22;37475;43.358;1.248;2022-08-21T06:56:36;21.30;78.70
51383;DHT22;37475;43.358;1.248;2022-08-21T06:59:04;21.40;78.10
51383;DHT22;37475;43.358;1.248;2022-08-21T07:01:31;21.70;78.00
51383;DHT22;37475;43.358;1.248;2022-08-21T07:03:57;21.90;76.90
51383;DHT22;37475;43.358;1.248;2022-08-21T07:06:24;22.10;76.90
51383;DHT22;37475;43.358;1.248;2022-08-21T07:08:50;22.20;76.30
51383;DHT22;37475;43.358;1.248;2022-08-21T07:11:22;22.30;74.00
51383;DHT22;37475;43.358;1.248;2022-08-21T07:13:49;22.40;73.40
51383;DHT22;37475;43.358;1.248;2022-08-21T07:16:17;22.20;73.40
51383;DHT22;37475;43.358;1.248;2022-08-21T07:18:44;22.10;73.60
51383;DHT22;37475;43.358;1.248;2022-08-21T07:21:10;22.30;73.70
51383;DHT22;37475;43.358;1.248;2022-08-21T07:23:50;22.30;73.60
51383;DHT22;37475;43.358;1.248;2022-08-21T07:26:19;22.20;73.50
51383;DHT22;37475;43.358;1.248;2022-08-21T07:28:47;22.30;73.50
51383;DHT22;37475;43.358;1.248;2022-08-21T07:31:15;22.50;73.60
51383;DHT22;37475;43.358;1.248;2022-08-21T07:33:43;22.60;72.80
51383;DHT22;37475;43.358;1.248;2022-08-21T07:36:09;22.50;72.70
51383;DHT22;37475;43.358;1.248;2022-08-21T07:38:35;22.40;73.00
51383;DHT22;37475;43.358;1.248;2022-08-21T07:41:03;22.50;72.80
51383;DHT22;37475;43.358;1.248;2022-08-21T07:43:37;22.50;72.60
51383;DHT22;37475;43.358;1.248;2022-08-21T07:46:03;22.60;72.50
51383;DHT22;37475;43.358;1.248;2022-08-21T07:48:29;22.70;72.40
51383;DHT22;37475;43.358;1.248;2022-08-21T07:50:54;22.80;72.00
51383;DHT22;37475;43.358;1.248;2022-08-21T07:53:21;22.90;72.10
51383;DHT22;37475;43.358;1.248;2022-08-21T07:55:47;23.00;71.30
51383;DHT22;37475;43.358;1.248;2022-08-21T07:58:13;23.00;71.50
51383;DHT22;37475;43.358;1.248;2022-08-21T08:00:39;23.00;70.70
51383;DHT22;37475;43.358;1.248;2022-08-21T08:03:05;23.00;70.60
51383;DHT22;37475;43.358;1.248;2022-08-21T08:05:32;23.10;70.50
51383;DHT22;37475;43.358;1.248;2022-08-21T08:07:58;23.10;71.10
51383;DHT22;37475;43.358;1.248;2022-08-21T08:10:24;23.10;71.40
51383;DHT22;37475;43.358;1.248;2022-08-21T08:12:51;23.10;71.10
51383;DHT22;37475;43.358;1.248;2022-08-21T08:15:21;23.00;71.60
51383;DHT22;37475;43.358;1.248;2022-08-21T08:17:49;23.00;71.80
51383;DHT22;37475;43.358;1.248;2022-08-21T08:20:16;23.10;71.50
51383;DHT22;37475;43.358;1.248;2022-08-21T08:22:44;23.10;71.80
51383;DHT22;37475;43.358;1.248;2022-08-21T08:25:12;23.10;71.70
51383;DHT22;37475;43.358;1.248;2022-08-21T08:27:38;23.10;71.70
51383;DHT22;37475;43.358;1.248;2022-08-21T08:30:06;23.30;71.30
51383;DHT22;37475;43.358;1.248;2022-08-21T08:32:33;23.60;70.70
51383;DHT22;37475;43.358;1.248;2022-08-21T08:35:00;23.50;70.30
51383;DHT22;37475;43.358;1.248;2022-08-21T08:37:25;23.70;70.40
51383;DHT22;37475;43.358;1.248;2022-08-21T08:39:51;24.00;69.10
51383;DHT22;37475;43.358;1.248;2022-08-21T08:42:32;24.20;67.90
51383;DHT22;37475;43.358;1.248;2022-08-21T08:45:15;24.20;68.20
51383;DHT22;37475;43.358;1.248;2022-08-21T08:47:53;24.50;67.70
51383;DHT22;37475;43.358;1.248;2022-08-21T08:53:22;24.30;69.00
51383;DHT22;37475;43.358;1.248;2022-08-21T08:55:52;24.40;68.20
51383;DHT22;37475;43.358;1.248;2022-08-21T08:58:27;24.50;68.00
51383;DHT22;37475;43.358;1.248;2022-08-21T09:00:58;24.50;67.50
51383;DHT22;37475;43.358;1.248;2022-08-21T09:03:26;24.70;67.20
51383;DHT22;37475;43.358;1.248;2022-08-21T09:06:16;24.60;67.60
51383;DHT22;37475;43.358;1.248;2022-08-21T09:09:15;24.60;67.50
51383;DHT22;37475;43.358;1.248;2022-08-21T09:12:12;24.70;66.90
51383;DHT22;37475;43.358;1.248;2022-08-21T09:15:26;25.00;65.30
51383;DHT22;37475;43.358;1.248;2022-08-21T09:24:02;25.10;65.40
51383;DHT22;37475;43.358;1.248;2022-08-21T09:29:39;25.40;63.40
51383;DHT22;37475;43.358;1.248;2022-08-21T09:32:29;25.50;63.60
51383;DHT22;37475;43.358;1.248;2022-08-21T09:37:26;26.10;61.60
51383;DHT22;37475;43.358;1.248;2022-08-21T09:39:54;26.10;62.50
51383;DHT22;37475;43.358;1.248;2022-08-21T09:42:26;26.10;61.20
51383;DHT22;37475;43.358;1.248;2022-08-21T09:45:12;26.00;61.50
51383;DHT22;37475;43.358;1.248;2022-08-21T09:47:42;26.20;60.30
51383;DHT22;37475;43.358;1.248;2022-08-21T09:50:15;26.20;60.00
51383;DHT22;37475;43.358;1.248;2022-08-21T09:52:50;26.40;59.80
51383;DHT22;37475;43.358;1.248;2022-08-21T09:58:19;27.00;57.30
51383;DHT22;37475;43.358;1.248;2022-08-21T10:00:57;26.90;57.20
51383;DHT22;37475;43.358;1.248;2022-08-21T10:03:24;26.80;57.40
51383;DHT22;37475;43.358;1.248;2022-08-21T10:08:26;27.60;54.70
51383;DHT22;37475;43.358;1.248;2022-08-21T10:11:03;27.50;53.60
51383;DHT22;37475;43.358;1.248;2022-08-21T10:33:39;27.60;51.90
51383;DHT22;37475;43.358;1.248;2022-08-21T10:36:14;27.10;53.60
51383;DHT22;37475;43.358;1.248;2022-08-21T10:38:58;27.70;53.20
51383;DHT22;37475;43.358;1.248;2022-08-21T10:47:55;27.60;53.10
51383;DHT22;37475;43.358;1.248;2022-08-21T10:50:44;27.30;53.30
51383;DHT22;37475;43.358;1.248;2022-08-21T10:59:02;28.20;52.70
51383;DHT22;37475;43.358;1.248;2022-08-21T11:02:13;28.50;51.20
51383;DHT22;37475;43.358;1.248;2022-08-21T11:05:01;27.80;53.20
51383;DHT22;37475;43.358;1.248;2022-08-21T11:07:36;27.20;54.60
51383;DHT22;37475;43.358;1.248;2022-08-21T11:10:14;27.00;55.30
51383;DHT22;37475;43.358;1.248;2022-08-21T11:12:56;27.70;54.00
51383;DHT22;37475;43.358;1.248;2022-08-21T11:15:43;28.20;51.90
51383;DHT22;37475;43.358;1.248;2022-08-21T11:18:28;28.30;50.10
51383;DHT22;37475;43.358;1.248;2022-08-21T11:23:29;28.30;49.50
51383;DHT22;37475;43.358;1.248;2022-08-21T11:26:03;28.60;46.90
51383;DHT22;37475;43.358;1.248;2022-08-21T11:28:51;29.00;46.70
51383;DHT22;37475;43.358;1.248;2022-08-21T11:31:51;28.50;47.10
51383;DHT22;37475;43.358;1.248;2022-08-21T11:34:27;28.10;49.60
51383;DHT22;37475;43.358;1.248;2022-08-21T11:40:00;28.80;49.20
51383;DHT22;37475;43.358;1.248;2022-08-21T11:51:41;29.30;44.20
51383;DHT22;37475;43.358;1.248;2022-08-21T11:54:27;29.00;46.80
51383;DHT22;37475;43.358;1.248;2022-08-21T12:03:13;29.60;46.60
51383;DHT22;37475;43.358;1.248;2022-08-21T12:05:44;30.10;45.30
51383;DHT22;37475;43.358;1.248;2022-08-21T12:08:34;29.50;45.80
51383;DHT22;37475;43.358;1.248;2022-08-21T12:11:09;28.80;47.50
51383;DHT22;37475;43.358;1.248;2022-08-21T12:16:40;29.00;47.90
51383;DHT22;37475;43.358;1.248;2022-08-21T12:19:33;28.80;47.70
51383;DHT22;37475;43.358;1.248;2022-08-21T12:24:36;28.90;47.70
51383;DHT22;37475;43.358;1.248;2022-08-21T12:27:26;29.20;46.90
51383;DHT22;37475;43.358;1.248;2022-08-21T12:29:56;29.20;47.00
51383;DHT22;37475;43.358;1.248;2022-08-21T12:32:42;29.30;47.50
51383;DHT22;37475;43.358;1.248;2022-08-21T12:35:21;29.10;48.70
51383;DHT22;37475;43.358;1.248;2022-08-21T12:38:18;29.50;47.90
51383;DHT22;37475;43.358;1.248;2022-08-21T12:40:47;29.70;46.60
51383;DHT22;37475;43.358;1.248;2022-08-21T12:43:37;29.30;46.90
51383;DHT22;37475;43.358;1.248;2022-08-21T12:46:06;29.00;46.60
51383;DHT22;37475;43.358;1.248;2022-08-21T12:48:47;29.00;47.10
51383;DHT22;37475;43.358;1.248;2022-08-21T12:54:29;29.40;46.60
51383;DHT22;37475;43.358;1.248;2022-08-21T12:57:02;29.30;47.50
51383;DHT22;37475;43.358;1.248;2022-08-21T12:59:30;29.20;47.30
51383;DHT22;37475;43.358;1.248;2022-08-21T13:01:58;29.30;47.50
51383;DHT22;37475;43.358;1.248;2022-08-21T13:04:37;29.40;47.00
51383;DHT22;37475;43.358;1.248;2022-08-21T13:07:08;29.40;46.70
51383;DHT22;37475;43.358;1.248;2022-08-21T13:09:55;29.50;46.70
51383;DHT22;37475;43.358;1.248;2022-08-21T13:12:24;29.00;48.00
51383;DHT22;37475;43.358;1.248;2022-08-21T13:14:51;28.80;48.80
51383;DHT22;37475;43.358;1.248;2022-08-21T13:17:25;28.80;48.00
51383;DHT22;37475;43.358;1.248;2022-08-21T13:19:57;28.80;48.10
51383;DHT22;37475;43.358;1.248;2022-08-21T13:22:25;28.80;48.20
51383;DHT22;37475;43.358;1.248;2022-08-21T13:24:52;29.00;47.10
51383;DHT22;37475;43.358;1.248;2022-08-21T13:27:22;28.90;47.70
51383;DHT22;37475;43.358;1.248;2022-08-21T13:30:05;29.10;46.90
51383;DHT22;37475;43.358;1.248;2022-08-21T13:32:41;29.10;47.20
51383;DHT22;37475;43.358;1.248;2022-08-21T13:35:20;29.20;47.10
51383;DHT22;37475;43.358;1.248;2022-08-21T13:37:50;29.80;46.70
51383;DHT22;37475;43.358;1.248;2022-08-21T13:41:26;29.70;46.10
51383;DHT22;37475;43.358;1.248;2022-08-21T13:43:32;29.70;46.00
51383;DHT22;37475;43.358;1.248;2022-08-21T13:46:02;28.70;47.70
51383;DHT22;37475;43.358;1.248;2022-08-21T13:48:36;28.70;47.60
51383;DHT22;37475;43.358;1.248;2022-08-21T13:51:02;28.60;48.10
51383;DHT22;37475;43.358;1.248;2022-08-21T13:53:30;28.70;49.00
51383;DHT22;37475;43.358;1.248;2022-08-21T13:55:59;28.70;48.00
51383;DHT22;37475;43.358;1.248;2022-08-21T13:58:45;28.50;48.80
51383;DHT22;37475;43.358;1.248;2022-08-21T14:01:39;28.60;48.70
51383;DHT22;37475;43.358;1.248;2022-08-21T14:04:20;28.70;48.00
51383;DHT22;37475;43.358;1.248;2022-08-21T14:06:49;28.50;48.60
51383;DHT22;37475;43.358;1.248;2022-08-21T14:09:32;28.50;49.40
51383;DHT22;37475;43.358;1.248;2022-08-21T14:12:04;28.50;48.70
51383;DHT22;37475;43.358;1.248;2022-08-21T14:14:41;28.60;49.50
51383;DHT22;37475;43.358;1.248;2022-08-21T14:17:13;28.60;49.30
51383;DHT22;37475;43.358;1.248;2022-08-21T14:19:44;28.60;49.50
51383;DHT22;37475;43.358;1.248;2022-08-21T14:22:31;28.90;48.40
51383;DHT22;37475;43.358;1.248;2022-08-21T14:27:51;28.90;48.70
51383;DHT22;37475;43.358;1.248;2022-08-21T14:30:21;28.90;48.40
51383;DHT22;37475;43.358;1.248;2022-08-21T14:32:48;28.80;48.50
51383;DHT22;37475;43.358;1.248;2022-08-21T14:35:14;29.10;47.80
51383;DHT22;37475;43.358;1.248;2022-08-21T14:37:45;29.10;48.00
51383;DHT22;37475;43.358;1.248;2022-08-21T14:40:11;29.40;46.90
51383;DHT22;37475;43.358;1.248;2022-08-21T14:42:39;29.40;46.30
51383;DHT22;37475;43.358;1.248;2022-08-21T14:47:49;29.90;46.80
51383;DHT22;37475;43.358;1.248;2022-08-21T14:50:16;30.10;46.10
51383;DHT22;37475;43.358;1.248;2022-08-21T14:52:42;29.70;46.20
51383;DHT22;37475;43.358;1.248;2022-08-21T14:55:09;29.60;46.50
51383;DHT22;37475;43.358;1.248;2022-08-21T14:57:41;29.40;47.20
51383;DHT22;37475;43.358;1.248;2022-08-21T15:00:10;29.30;46.80
51383;DHT22;37475;43.358;1.248;2022-08-21T15:02:37;29.10;47.90
51383;DHT22;37475;43.358;1.248;2022-08-21T15:05:04;29.40;46.60
51383;DHT22;37475;43.358;1.248;2022-08-21T15:07:30;29.50;46.70
51383;DHT22;37475;43.358;1.248;2022-08-21T15:09:56;29.70;46.80
51383;DHT22;37475;43.358;1.248;2022-08-21T15:12:23;30.00;46.10
51383;DHT22;37475;43.358;1.248;2022-08-21T15:14:49;29.90;46.00
51383;DHT22;37475;43.358;1.248;2022-08-21T15:17:15;29.10;47.00
51383;DHT22;37475;43.358;1.248;2022-08-21T15:19:41;28.80;48.00
51383;DHT22;37475;43.358;1.248;2022-08-21T15:22:07;28.80;47.60
51383;DHT22;37475;43.358;1.248;2022-08-21T15:24:33;28.80;48.50
51383;DHT22;37475;43.358;1.248;2022-08-21T15:27:01;28.80;48.60
51383;DHT22;37475;43.358;1.248;2022-08-21T15:29:29;28.70;48.50
51383;DHT22;37475;43.358;1.248;2022-08-21T15:31:56;29.00;48.80
51383;DHT22;37475;43.358;1.248;2022-08-21T15:34:26;29.70;47.90
51383;DHT22;37475;43.358;1.248;2022-08-21T15:36:54;30.50;46.70
51383;DHT22;37475;43.358;1.248;2022-08-21T15:39:20;29.90;45.60
51383;DHT22;37475;43.358;1.248;2022-08-21T15:41:47;29.10;47.50
51383;DHT22;37475;43.358;1.248;2022-08-21T15:44:13;28.90;48.30
51383;DHT22;37475;43.358;1.248;2022-08-21T15:46:40;28.60;49.10
51383;DHT22;37475;43.358;1.248;2022-08-21T15:49:06;28.70;49.20
51383;DHT22;37475;43.358;1.248;2022-08-21T15:51:33;28.70;48.90
51383;DHT22;37475;43.358;1.248;2022-08-21T15:54:00;28.50;49.00
51383;DHT22;37475;43.358;1.248;2022-08-21T15:56:35;28.70;48.10
51383;DHT22;37475;43.358;1.248;2022-08-21T15:59:06;28.90;47.90
51383;DHT22;37475;43.358;1.248;2022-08-21T16:01:35;29.10;47.80
51383;DHT22;37475;43.358;1.248;2022-08-21T16:04:02;29.10;47.50
51383;DHT22;37475;43.358;1.248;2022-08-21T16:06:29;29.00;48.10
51383;DHT22;37475;43.358;1.248;2022-08-21T16:08:55;29.00;47.50
51383;DHT22;37475;43.358;1.248;2022-08-21T16:11:21;29.80;46.60
51383;DHT22;37475;43.358;1.248;2022-08-21T16:13:48;29.60;46.50
51383;DHT22;37475;43.358;1.248;2022-08-21T16:16:18;29.70;46.20
51383;DHT22;37475;43.358;1.248;2022-08-21T16:18:47;29.20;46.80
51383;DHT22;37475;43.358;1.248;2022-08-21T16:21:13;29.00;47.50
51383;DHT22;37475;43.358;1.248;2022-08-21T16:23:40;29.00;47.30
51383;DHT22;37475;43.358;1.248;2022-08-21T16:26:07;29.00;47.60
51383;DHT22;37475;43.358;1.248;2022-08-21T16:28:36;28.90;47.60
51383;DHT22;37475;43.358;1.248;2022-08-21T16:31:04;29.40;46.80
51383;DHT22;37475;43.358;1.248;2022-08-21T16:33:34;29.50;46.50
51383;DHT22;37475;43.358;1.248;2022-08-21T16:36:03;29.00;47.30
51383;DHT22;37475;43.358;1.248;2022-08-21T16:38:29;29.10;47.30
51383;DHT22;37475;43.358;1.248;2022-08-21T16:40:58;29.00;46.80
51383;DHT22;37475;43.358;1.248;2022-08-21T16:43:28;28.80;47.30
51383;DHT22;37475;43.358;1.248;2022-08-21T16:45:56;28.40;48.20
51383;DHT22;37475;43.358;1.248;2022-08-21T16:48:23;28.30;48.40
51383;DHT22;37475;43.358;1.248;2022-08-21T16:50:49;28.20;48.70
51383;DHT22;37475;43.358;1.248;2022-08-21T16:53:15;28.20;48.80
51383;DHT22;37475;43.358;1.248;2022-08-21T16:55:42;28.10;48.80
51383;DHT22;37475;43.358;1.248;2022-08-21T16:58:13;28.10;48.90
51383;DHT22;37475;43.358;1.248;2022-08-21T17:00:41;28.30;48.40
51383;DHT22;37475;43.358;1.248;2022-08-21T17:03:12;28.30;48.90
51383;DHT22;37475;43.358;1.248;2022-08-21T17:05:41;28.40;48.70
51383;DHT22;37475;43.358;1.248;2022-08-21T17:08:07;28.30;49.50
51383;DHT22;37475;43.358;1.248;2022-08-21T17:10:36;28.50;49.20
51383;DHT22;37475;43.358;1.248;2022-08-21T17:13:03;29.00;48.30
51383;DHT22;37475;43.358;1.248;2022-08-21T17:15:35;29.10;48.10
51383;DHT22;37475;43.358;1.248;2022-08-21T17:18:05;29.40;47.10
51383;DHT22;37475;43.358;1.248;2022-08-21T17:20:34;28.90;48.30
51383;DHT22;37475;43.358;1.248;2022-08-21T17:22:59;28.80;48.90
51383;DHT22;37475;43.358;1.248;2022-08-21T17:25:25;29.10;48.20